sensor_id;sensor_type;location;lat;lon;timestamp;P1;durP1;ratioP1;P2;durP2;ratioP2
16660;SDS011;8444;52.012;5.048;2023-06-26T00:01:57;6.72;;;5.22;;
16660;SDS011;8444;52.012;5.048;2023-06-26T00:04:22;6.50;;;5.53;;
16660;SDS011;8444;52.012;5.048;2023-06-26T00:06:47;7.00;;;6.10;;
16660;SDS011;8444;52.012;5.048;2023-06-26T00:09:12;5.78;;;5.05;;
16660;SDS011;8444;52.012;5.048;2023-06-26T00:11:38;9.63;;;5.63;;
16660;SDS011;8444;52.012;5.048;2023-06-26T00:14:03;7.70;;;5.73;;
16660;SDS011;8444;52.012;5.048;2023-06-26T00:16:28;7.05;;;5.47;;
16660;SDS011;8444;52.012;5.048;2023-06-26T00:18:53;6.38;;;4.93;;
16660;SDS011;8444;52.012;5.048;2023-06-26T00:21:19;7.25;;;5.30;;
16660;SDS011;8444;52.012;5.048;2023-06-26T00:23:44;8.32;;;5.80;;
16660;SDS011;8444;52.012;5.048;2023-06-26T00:26:10;6.80;;;5.82;;
16660;SDS011;8444;52.012;5.048;2023-06-26T00:28:36;10.02;;;6.78;;
16660;SDS011;8444;52.012;5.048;2023-06-26T00:31:01;6.57;;;5.40;;
16660;SDS011;8444;52.012;5.048;2023-06-26T00:33:26;7.55;;;6.07;;
16660;SDS011;8444;52.012;5.048;2023-06-26T00:35:51;9.80;;;6.55;;
16660;SDS011;8444;52.012;5.048;2023-06-26T00:38:16;6.93;;;6.23;;
16660;SDS011;8444;52.012;5.048;2023-06-26T00:40:42;16.30;;;6.38;;
16660;SDS011;8444;52.012;5.048;2023-06-26T00:43:07;9.27;;;5.88;;
16660;SDS011;8444;52.012;5.048;2023-06-26T00:45:32;7.90;;;5.65;;
16660;SDS011;8444;52.012;5.048;2023-06-26T00:47:58;6.28;;;5.55;;
16660;SDS011;8444;52.012;5.048;2023-06-26T00:50:23;14.43;;;5.90;;
16660;SDS011;8444;52.012;5.048;2023-06-26T00:52:48;6.97;;;5.00;;
16660;SDS011;8444;52.012;5.048;2023-06-26T00:55:14;10.15;;;5.15;;
16660;SDS011;8444;52.012;5.048;2023-06-26T00:57:39;11.73;;;5.72;;
16660;SDS011;8444;52.012;5.048;2023-06-26T01:00:04;6.90;;;5.15;;
16660;SDS011;8444;52.012;5.048;2023-06-26T01:02:30;10.13;;;5.30;;
16660;SDS011;8444;52.012;5.048;2023-06-26T01:04:59;6.70;;;5.15;;
16660;SDS011;8444;52.012;5.048;2023-06-26T01:07:24;15.25;;;4.88;;
16660;SDS011;8444;52.012;5.048;2023-06-26T01:09:49;4.95;;;3.78;;
16660;SDS011;8444;52.012;5.048;2023-06-26T01:12:15;7.47;;;4.55;;
16660;SDS011;8444;52.012;5.048;2023-06-26T01:14:40;7.85;;;4.70;;
16660;SDS011;8444;52.012;5.048;2023-06-26T01:17:06;5.95;;;4.10;;
16660;SDS011;8444;52.012;5.048;2023-06-26T01:19:32;7.20;;;3.83;;
16660;SDS011;8444;52.012;5.048;2023-06-26T01:24:42;3.60;;;3.05;;
16660;SDS011;8444;52.012;5.048;2023-06-26T01:27:09;8.77;;;3.33;;
16660;SDS011;8444;52.012;5.048;2023-06-26T01:29:36;8.82;;;3.80;;
16660;SDS011;8444;52.012;5.048;2023-06-26T01:32:02;7.90;;;4.07;;
16660;SDS011;8444;52.012;5.048;2023-06-26T01:34:27;7.28;;;3.20;;
16660;SDS011;8444;52.012;5.048;2023-06-26T01:36:52;6.82;;;3.53;;
16660;SDS011;8444;52.012;5.048;2023-06-26T01:39:18;5.93;;;3.15;;
16660;SDS011;8444;52.012;5.048;2023-06-26T01:41:43;7.15;;;4.03;;
16660;SDS011;8444;52.012;5.048;2023-06-26T01:44:16;6.75;;;3.65;;
16660;SDS011;8444;52.012;5.048;2023-06-26T01:46:47;5.60;;;3.80;;
16660;SDS011;8444;52.012;5.048;2023-06-26T01:51:47;7.07;;;3.67;;
16660;SDS011;8444;52.012;5.048;2023-06-26T01:54:17;9.07;;;3.47;;
16660;SDS011;8444;52.012;5.048;2023-06-26T01:56:43;6.70;;;3.50;;
16660;SDS011;8444;52.012;5.048;2023-06-26T01:59:09;5.50;;;3.33;;
16660;SDS011;8444;52.012;5.048;2023-06-26T02:01:36;7.85;;;3.50;;
16660;SDS011;8444;52.012;5.048;2023-06-26T02:04:01;6.32;;;3.85;;
16660;SDS011;8444;52.012;5.048;2023-06-26T02:06:27;8.70;;;3.88;;
16660;SDS011;8444;52.012;5.048;2023-06-26T02:08:52;7.63;;;3.63;;
16660;SDS011;8444;52.012;5.048;2023-06-26T02:11:17;10.27;;;3.92;;
16660;SDS011;8444;52.012;5.048;2023-06-26T02:13:42;7.90;;;3.72;;
16660;SDS011;8444;52.012;5.048;2023-06-26T02:16:07;9.82;;;3.63;;
16660;SDS011;8444;52.012;5.048;2023-06-26T02:18:33;5.05;;;3.95;;
16660;SDS011;8444;52.012;5.048;2023-06-26T02:20:58;9.00;;;4.60;;
16660;SDS011;8444;52.012;5.048;2023-06-26T02:23:23;10.00;;;4.47;;
16660;SDS011;8444;52.012;5.048;2023-06-26T02:25:48;7.72;;;3.88;;
16660;SDS011;8444;52.012;5.048;2023-06-26T02:28:13;10.82;;;3.35;;
16660;SDS011;8444;52.012;5.048;2023-06-26T02:30:39;6.07;;;3.47;;
16660;SDS011;8444;52.012;5.048;2023-06-26T02:33:04;10.45;;;4.07;;
16660;SDS011;8444;52.012;5.048;2023-06-26T02:35:29;9.45;;;4.22;;
16660;SDS011;8444;52.012;5.048;2023-06-26T02:37:54;8.32;;;3.72;;
16660;SDS011;8444;52.012;5.048;2023-06-26T02:40:20;7.32;;;4.25;;
16660;SDS011;8444;52.012;5.048;2023-06-26T02:42:45;8.75;;;3.45;;
16660;SDS011;8444;52.012;5.048;2023-06-26T02:45:10;9.35;;;3.70;;
16660;SDS011;8444;52.012;5.048;2023-06-26T02:47:35;9.95;;;4.18;;
16660;SDS011;8444;52.012;5.048;2023-06-26T02:50:04;11.02;;;4.30;;
16660;SDS011;8444;52.012;5.048;2023-06-26T02:52:29;10.80;;;4.10;;
16660;SDS011;8444;52.012;5.048;2023-06-26T02:54:54;8.85;;;4.18;;
16660;SDS011;8444;52.012;5.048;2023-06-26T02:57:20;10.80;;;3.97;;
16660;SDS011;8444;52.012;5.048;2023-06-26T02:59:45;10.35;;;3.83;;
16660;SDS011;8444;52.012;5.048;2023-06-26T03:02:10;9.82;;;4.35;;
16660;SDS011;8444;52.012;5.048;2023-06-26T03:04:36;7.75;;;4.32;;
16660;SDS011;8444;52.012;5.048;2023-06-26T03:07:01;11.13;;;4.35;;
16660;SDS011;8444;52.012;5.048;2023-06-26T03:09:26;7.57;;;4.22;;
16660;SDS011;8444;52.012;5.048;2023-06-26T03:11:51;8.13;;;3.88;;
16660;SDS011;8444;52.012;5.048;2023-06-26T03:14:18;10.93;;;4.65;;
16660;SDS011;8444;52.012;5.048;2023-06-26T03:16:43;10.02;;;5.00;;
16660;SDS011;8444;52.012;5.048;2023-06-26T03:19:08;11.02;;;3.80;;
16660;SDS011;8444;52.012;5.048;2023-06-26T03:21:34;7.72;;;4.47;;
16660;SDS011;8444;52.012;5.048;2023-06-26T03:23:59;8.43;;;4.38;;
16660;SDS011;8444;52.012;5.048;2023-06-26T03:26:24;8.25;;;4.20;;
16660;SDS011;8444;52.012;5.048;2023-06-26T03:28:52;8.68;;;3.97;;
16660;SDS011;8444;52.012;5.048;2023-06-26T03:31:18;10.63;;;4.63;;
16660;SDS011;8444;52.012;5.048;2023-06-26T03:33:43;10.40;;;4.28;;
16660;SDS011;8444;52.012;5.048;2023-06-26T03:36:09;9.00;;;5.05;;
16660;SDS011;8444;52.012;5.048;2023-06-26T03:38:34;19.58;;;5.25;;
16660;SDS011;8444;52.012;5.048;2023-06-26T03:40:59;12.25;;;4.55;;
16660;SDS011;8444;52.012;5.048;2023-06-26T03:43:24;10.73;;;4.65;;
16660;SDS011;8444;52.012;5.048;2023-06-26T03:45:49;16.77;;;4.78;;
16660;SDS011;8444;52.012;5.048;2023-06-26T03:48:15;16.35;;;5.03;;
16660;SDS011;8444;52.012;5.048;2023-06-26T03:50:40;20.27;;;5.75;;
16660;SDS011;8444;52.012;5.048;2023-06-26T03:53:05;13.00;;;4.65;;
16660;SDS011;8444;52.012;5.048;2023-06-26T03:55:30;14.77;;;5.47;;
16660;SDS011;8444;52.012;5.048;2023-06-26T03:57:56;12.57;;;4.18;;
16660;SDS011;8444;52.012;5.048;2023-06-26T04:00:21;9.25;;;4.28;;
16660;SDS011;8444;52.012;5.048;2023-06-26T04:02:46;8.23;;;3.70;;
16660;SDS011;8444;52.012;5.048;2023-06-26T04:05:12;9.10;;;3.70;;
16660;SDS011;8444;52.012;5.048;2023-06-26T04:07:37;13.75;;;4.75;;
16660;SDS011;8444;52.012;5.048;2023-06-26T04:10:02;8.55;;;4.60;;
16660;SDS011;8444;52.012;5.048;2023-06-26T04:12:28;8.70;;;4.40;;
16660;SDS011;8444;52.012;5.048;2023-06-26T04:14:53;8.25;;;4.28;;
16660;SDS011;8444;52.012;5.048;2023-06-26T04:17:18;13.80;;;4.38;;
16660;SDS011;8444;52.012;5.048;2023-06-26T04:19:43;9.00;;;3.72;;
16660;SDS011;8444;52.012;5.048;2023-06-26T04:22:09;6.97;;;3.65;;
16660;SDS011;8444;52.012;5.048;2023-06-26T04:24:34;8.30;;;3.67;;
16660;SDS011;8444;52.012;5.048;2023-06-26T04:26:59;9.82;;;4.00;;
16660;SDS011;8444;52.012;5.048;2023-06-26T04:29:25;9.68;;;3.97;;
16660;SDS011;8444;52.012;5.048;2023-06-26T04:31:52;7.35;;;3.20;;
16660;SDS011;8444;52.012;5.048;2023-06-26T04:34:17;10.77;;;3.92;;
16660;SDS011;8444;52.012;5.048;2023-06-26T04:36:42;12.98;;;3.70;;
16660;SDS011;8444;52.012;5.048;2023-06-26T04:39:13;9.30;;;3.92;;
16660;SDS011;8444;52.012;5.048;2023-06-26T04:41:39;12.02;;;3.83;;
16660;SDS011;8444;52.012;5.048;2023-06-26T04:44:04;12.98;;;4.22;;
16660;SDS011;8444;52.012;5.048;2023-06-26T04:46:30;7.40;;;3.47;;
16660;SDS011;8444;52.012;5.048;2023-06-26T04:48:55;7.55;;;3.63;;
16660;SDS011;8444;52.012;5.048;2023-06-26T04:51:23;9.65;;;3.28;;
16660;SDS011;8444;52.012;5.048;2023-06-26T04:53:48;8.82;;;3.30;;
16660;SDS011;8444;52.012;5.048;2023-06-26T04:56:13;7.28;;;2.72;;
16660;SDS011;8444;52.012;5.048;2023-06-26T04:58:38;9.65;;;3.10;;
16660;SDS011;8444;52.012;5.048;2023-06-26T05:01:04;7.15;;;3.60;;
16660;SDS011;8444;52.012;5.048;2023-06-26T05:03:31;8.05;;;3.15;;
16660;SDS011;8444;52.012;5.048;2023-06-26T05:05:57;6.10;;;2.95;;
16660;SDS011;8444;52.012;5.048;2023-06-26T05:08:22;6.78;;;3.15;;
16660;SDS011;8444;52.012;5.048;2023-06-26T05:10:48;6.55;;;2.88;;
16660;SDS011;8444;52.012;5.048;2023-06-26T05:13:13;9.35;;;3.42;;
16660;SDS011;8444;52.012;5.048;2023-06-26T05:15:40;5.57;;;3.00;;
16660;SDS011;8444;52.012;5.048;2023-06-26T05:18:05;6.35;;;2.88;;
16660;SDS011;8444;52.012;5.048;2023-06-26T05:20:31;5.63;;;2.83;;
16660;SDS011;8444;52.012;5.048;2023-06-26T05:22:56;9.35;;;4.03;;
16660;SDS011;8444;52.012;5.048;2023-06-26T05:25:22;6.43;;;3.58;;
16660;SDS011;8444;52.012;5.048;2023-06-26T05:27:48;6.00;;;2.90;;
16660;SDS011;8444;52.012;5.048;2023-06-26T05:30:14;4.80;;;2.38;;
16660;SDS011;8444;52.012;5.048;2023-06-26T05:32:40;4.60;;;3.00;;
16660;SDS011;8444;52.012;5.048;2023-06-26T05:35:05;6.50;;;3.45;;
16660;SDS011;8444;52.012;5.048;2023-06-26T05:37:31;7.28;;;2.80;;
16660;SDS011;8444;52.012;5.048;2023-06-26T05:39:57;9.27;;;2.92;;
16660;SDS011;8444;52.012;5.048;2023-06-26T05:42:22;11.07;;;3.55;;
16660;SDS011;8444;52.012;5.048;2023-06-26T05:44:47;5.88;;;2.70;;
16660;SDS011;8444;52.012;5.048;2023-06-26T05:47:13;7.50;;;2.40;;
16660;SDS011;8444;52.012;5.048;2023-06-26T05:49:38;7.65;;;3.10;;
16660;SDS011;8444;52.012;5.048;2023-06-26T05:52:03;6.60;;;2.60;;
16660;SDS011;8444;52.012;5.048;2023-06-26T05:54:28;5.78;;;2.88;;
16660;SDS011;8444;52.012;5.048;2023-06-26T05:56:56;6.15;;;2.00;;
16660;SDS011;8444;52.012;5.048;2023-06-26T05:59:21;5.15;;;2.17;;
16660;SDS011;8444;52.012;5.048;2023-06-26T06:01:47;4.35;;;2.10;;
16660;SDS011;8444;52.012;5.048;2023-06-26T06:04:12;3.85;;;2.08;;
16660;SDS011;8444;52.012;5.048;2023-06-26T06:06:37;5.93;;;2.60;;
16660;SDS011;8444;52.012;5.048;2023-06-26T06:09:03;5.13;;;2.35;;
16660;SDS011;8444;52.012;5.048;2023-06-26T06:11:28;5.38;;;2.00;;
16660;SDS011;8444;52.012;5.048;2023-06-26T06:13:53;7.10;;;2.53;;
16660;SDS011;8444;52.012;5.048;2023-06-26T06:16:18;3.88;;;2.42;;
16660;SDS011;8444;52.012;5.048;2023-06-26T06:18:43;9.25;;;2.40;;
16660;SDS011;8444;52.012;5.048;2023-06-26T06:21:09;3.95;;;2.17;;
16660;SDS011;8444;52.012;5.048;2023-06-26T06:23:34;3.35;;;2.30;;
16660;SDS011;8444;52.012;5.048;2023-06-26T06:25:59;3.85;;;2.17;;
16660;SDS011;8444;52.012;5.048;2023-06-26T06:28:24;2.78;;;1.95;;
16660;SDS011;8444;52.012;5.048;2023-06-26T06:30:49;4.57;;;2.38;;
16660;SDS011;8444;52.012;5.048;2023-06-26T06:33:15;5.65;;;2.10;;
16660;SDS011;8444;52.012;5.048;2023-06-26T06:35:40;7.57;;;2.47;;
16660;SDS011;8444;52.012;5.048;2023-06-26T06:38:05;6.18;;;2.03;;
16660;SDS011;8444;52.012;5.048;2023-06-26T06:40:30;2.88;;;2.25;;
16660;SDS011;8444;52.012;5.048;2023-06-26T06:42:56;6.45;;;2.42;;
16660;SDS011;8444;52.012;5.048;2023-06-26T06:45:21;4.25;;;1.85;;
16660;SDS011;8444;52.012;5.048;2023-06-26T06:47:46;4.53;;;2.25;;
16660;SDS011;8444;52.012;5.048;2023-06-26T06:50:11;7.82;;;2.13;;
16660;SDS011;8444;52.012;5.048;2023-06-26T06:52:38;5.75;;;2.10;;
16660;SDS011;8444;52.012;5.048;2023-06-26T06:55:04;3.38;;;2.28;;
16660;SDS011;8444;52.012;5.048;2023-06-26T06:57:31;6.47;;;2.92;;
16660;SDS011;8444;52.012;5.048;2023-06-26T07:00:00;9.00;;;2.45;;
16660;SDS011;8444;52.012;5.048;2023-06-26T07:02:26;3.67;;;1.83;;
16660;SDS011;8444;52.012;5.048;2023-06-26T07:04:51;3.05;;;1.38;;
16660;SDS011;8444;52.012;5.048;2023-06-26T07:07:18;5.65;;;1.70;;
16660;SDS011;8444;52.012;5.048;2023-06-26T07:09:43;5.60;;;1.73;;
16660;SDS011;8444;52.012;5.048;2023-06-26T07:12:09;2.42;;;1.25;;
16660;SDS011;8444;52.012;5.048;2023-06-26T07:14:34;2.72;;;1.65;;
16660;SDS011;8444;52.012;5.048;2023-06-26T07:16:59;8.30;;;1.92;;
16660;SDS011;8444;52.012;5.048;2023-06-26T07:19:24;5.63;;;1.73;;
16660;SDS011;8444;52.012;5.048;2023-06-26T07:21:50;6.03;;;1.95;;
16660;SDS011;8444;52.012;5.048;2023-06-26T07:24:15;3.08;;;1.40;;
16660;SDS011;8444;52.012;5.048;2023-06-26T07:26:40;5.90;;;1.67;;
16660;SDS011;8444;52.012;5.048;2023-06-26T07:29:05;4.15;;;1.73;;
16660;SDS011;8444;52.012;5.048;2023-06-26T07:31:31;2.67;;;1.23;;
16660;SDS011;8444;52.012;5.048;2023-06-26T07:33:56;3.72;;;1.48;;
16660;SDS011;8444;52.012;5.048;2023-06-26T07:36:21;2.90;;;1.23;;
16660;SDS011;8444;52.012;5.048;2023-06-26T07:38:46;8.85;;;1.48;;
16660;SDS011;8444;52.012;5.048;2023-06-26T07:41:11;2.65;;;1.08;;
16660;SDS011;8444;52.012;5.048;2023-06-26T07:43:37;5.60;;;1.30;;
16660;SDS011;8444;52.012;5.048;2023-06-26T07:46:02;10.82;;;1.80;;
16660;SDS011;8444;52.012;5.048;2023-06-26T07:48:27;4.70;;;1.33;;
16660;SDS011;8444;52.012;5.048;2023-06-26T07:50:52;4.07;;;1.38;;
16660;SDS011;8444;52.012;5.048;2023-06-26T07:53:18;3.53;;;1.42;;
16660;SDS011;8444;52.012;5.048;2023-06-26T07:55:43;4.28;;;1.40;;
16660;SDS011;8444;52.012;5.048;2023-06-26T07:58:09;2.28;;;1.13;;
16660;SDS011;8444;52.012;5.048;2023-06-26T08:00:34;3.08;;;1.42;;
16660;SDS011;8444;52.012;5.048;2023-06-26T08:03:00;8.43;;;1.77;;
16660;SDS011;8444;52.012;5.048;2023-06-26T08:05:25;7.57;;;1.65;;
16660;SDS011;8444;52.012;5.048;2023-06-26T08:07:50;5.60;;;1.30;;
16660;SDS011;8444;52.012;5.048;2023-06-26T08:10:15;5.43;;;1.20;;
16660;SDS011;8444;52.012;5.048;2023-06-26T08:12:41;5.10;;;1.35;;
16660;SDS011;8444;52.012;5.048;2023-06-26T08:15:08;3.22;;;1.80;;
16660;SDS011;8444;52.012;5.048;2023-06-26T08:17:33;2.53;;;1.00;;
16660;SDS011;8444;52.012;5.048;2023-06-26T08:19:59;3.30;;;1.80;;
16660;SDS011;8444;52.012;5.048;2023-06-26T08:22:24;3.33;;;0.93;;
16660;SDS011;8444;52.012;5.048;2023-06-26T08:24:49;3.88;;;1.52;;
16660;SDS011;8444;52.012;5.048;2023-06-26T08:27:14;5.50;;;1.10;;
16660;SDS011;8444;52.012;5.048;2023-06-26T08:29:39;2.50;;;1.40;;
16660;SDS011;8444;52.012;5.048;2023-06-26T08:32:05;4.95;;;1.38;;
16660;SDS011;8444;52.012;5.048;2023-06-26T08:34:30;2.45;;;1.02;;
16660;SDS011;8444;52.012;5.048;2023-06-26T08:36:55;1.73;;;1.20;;
16660;SDS011;8444;52.012;5.048;2023-06-26T08:39:20;4.32;;;1.02;;
16660;SDS011;8444;52.012;5.048;2023-06-26T08:41:46;5.50;;;1.30;;
16660;SDS011;8444;52.012;5.048;2023-06-26T08:44:11;3.92;;;1.50;;
16660;SDS011;8444;52.012;5.048;2023-06-26T08:46:36;3.55;;;0.98;;
16660;SDS011;8444;52.012;5.048;2023-06-26T08:49:08;2.42;;;1.00;;
16660;SDS011;8444;52.012;5.048;2023-06-26T08:51:37;2.50;;;1.20;;
16660;SDS011;8444;52.012;5.048;2023-06-26T08:54:05;5.00;;;1.83;;
16660;SDS011;8444;52.012;5.048;2023-06-26T08:56:32;5.68;;;1.77;;
16660;SDS011;8444;52.012;5.048;2023-06-26T08:59:00;2.10;;;0.82;;
16660;SDS011;8444;52.012;5.048;2023-06-26T09:01:26;1.60;;;0.80;;
16660;SDS011;8444;52.012;5.048;2023-06-26T09:03:51;3.83;;;1.48;;
16660;SDS011;8444;52.012;5.048;2023-06-26T09:06:16;3.90;;;1.50;;
16660;SDS011;8444;52.012;5.048;2023-06-26T09:08:43;3.60;;;1.17;;
16660;SDS011;8444;52.012;5.048;2023-06-26T09:11:08;4.35;;;1.38;;
16660;SDS011;8444;52.012;5.048;2023-06-26T09:13:33;3.22;;;1.40;;
16660;SDS011;8444;52.012;5.048;2023-06-26T09:15:59;4.55;;;1.10;;
16660;SDS011;8444;52.012;5.048;2023-06-26T09:18:24;4.07;;;1.23;;
16660;SDS011;8444;52.012;5.048;2023-06-26T09:20:49;1.23;;;1.00;;
16660;SDS011;8444;52.012;5.048;2023-06-26T09:23:15;3.53;;;1.30;;
16660;SDS011;8444;52.012;5.048;2023-06-26T09:25:41;2.85;;;1.35;;
16660;SDS011;8444;52.012;5.048;2023-06-26T09:28:06;2.78;;;0.95;;
16660;SDS011;8444;52.012;5.048;2023-06-26T09:30:32;5.10;;;1.33;;
16660;SDS011;8444;52.012;5.048;2023-06-26T09:32:57;4.03;;;1.30;;
16660;SDS011;8444;52.012;5.048;2023-06-26T09:35:22;3.13;;;1.63;;
16660;SDS011;8444;52.012;5.048;2023-06-26T09:37:48;3.42;;;1.20;;
16660;SDS011;8444;52.012;5.048;2023-06-26T09:40:13;5.35;;;1.48;;
16660;SDS011;8444;52.012;5.048;2023-06-26T09:42:39;3.10;;;1.02;;
16660;SDS011;8444;52.012;5.048;2023-06-26T09:45:04;4.82;;;1.05;;
16660;SDS011;8444;52.012;5.048;2023-06-26T09:47:30;2.78;;;1.63;;
16660;SDS011;8444;52.012;5.048;2023-06-26T09:49:55;2.40;;;1.67;;
16660;SDS011;8444;52.012;5.048;2023-06-26T09:52:20;7.10;;;1.10;;
16660;SDS011;8444;52.012;5.048;2023-06-26T09:54:46;6.65;;;1.40;;
16660;SDS011;8444;52.012;5.048;2023-06-26T09:59:36;3.75;;;1.10;;
16660;SDS011;8444;52.012;5.048;2023-06-26T10:02:02;2.83;;;1.30;;
16660;SDS011;8444;52.012;5.048;2023-06-26T10:04:27;2.45;;;0.90;;
16660;SDS011;8444;52.012;5.048;2023-06-26T10:06:54;2.88;;;0.65;;
16660;SDS011;8444;52.012;5.048;2023-06-26T10:09:20;4.32;;;1.20;;
16660;SDS011;8444;52.012;5.048;2023-06-26T10:12:07;2.85;;;1.10;;
16660;SDS011;8444;52.012;5.048;2023-06-26T10:14:35;2.97;;;0.95;;
16660;SDS011;8444;52.012;5.048;2023-06-26T10:17:06;4.00;;;2.10;;
16660;SDS011;8444;52.012;5.048;2023-06-26T10:19:32;3.90;;;1.00;;
16660;SDS011;8444;52.012;5.048;2023-06-26T10:21:58;3.50;;;1.15;;
16660;SDS011;8444;52.012;5.048;2023-06-26T10:24:23;8.25;;;1.88;;
16660;SDS011;8444;52.012;5.048;2023-06-26T10:26:50;4.72;;;1.13;;
16660;SDS011;8444;52.012;5.048;2023-06-26T10:29:16;1.50;;;1.02;;
16660;SDS011;8444;52.012;5.048;2023-06-26T10:31:43;2.00;;;0.80;;
16660;SDS011;8444;52.012;5.048;2023-06-26T10:34:10;3.13;;;1.05;;
16660;SDS011;8444;52.012;5.048;2023-06-26T10:36:35;1.90;;;0.98;;
16660;SDS011;8444;52.012;5.048;2023-06-26T10:39:05;5.20;;;1.77;;
16660;SDS011;8444;52.012;5.048;2023-06-26T10:41:35;3.25;;;1.48;;
16660;SDS011;8444;52.012;5.048;2023-06-26T10:46:26;1.52;;;1.02;;
16660;SDS011;8444;52.012;5.048;2023-06-26T10:49:00;1.85;;;0.80;;
16660;SDS011;8444;52.012;5.048;2023-06-26T10:51:29;3.45;;;0.88;;
16660;SDS011;8444;52.012;5.048;2023-06-26T10:53:55;3.45;;;1.85;;
16660;SDS011;8444;52.012;5.048;2023-06-26T10:56:21;1.67;;;1.10;;
16660;SDS011;8444;52.012;5.048;2023-06-26T10:58:47;2.25;;;1.33;;
16660;SDS011;8444;52.012;5.048;2023-06-26T11:03:47;3.45;;;1.23;;
16660;SDS011;8444;52.012;5.048;2023-06-26T11:06:17;3.42;;;1.38;;
16660;SDS011;8444;52.012;5.048;2023-06-26T11:11:12;3.20;;;1.00;;
16660;SDS011;8444;52.012;5.048;2023-06-26T11:13:37;3.58;;;1.10;;
16660;SDS011;8444;52.012;5.048;2023-06-26T11:16:02;3.30;;;0.90;;
16660;SDS011;8444;52.012;5.048;2023-06-26T11:18:27;3.97;;;1.00;;
16660;SDS011;8444;52.012;5.048;2023-06-26T11:20:53;1.88;;;0.80;;
16660;SDS011;8444;52.012;5.048;2023-06-26T11:23:20;2.55;;;1.00;;
16660;SDS011;8444;52.012;5.048;2023-06-26T11:25:47;3.70;;;1.52;;
16660;SDS011;8444;52.012;5.048;2023-06-26T11:28:12;2.08;;;1.10;;
16660;SDS011;8444;52.012;5.048;2023-06-26T11:30:37;2.75;;;0.90;;
16660;SDS011;8444;52.012;5.048;2023-06-26T11:33:06;2.97;;;0.70;;
16660;SDS011;8444;52.012;5.048;2023-06-26T11:35:32;0.95;;;0.63;;
16660;SDS011;8444;52.012;5.048;2023-06-26T11:37:57;3.92;;;1.00;;
16660;SDS011;8444;52.012;5.048;2023-06-26T11:40:25;2.35;;;0.50;;
16660;SDS011;8444;52.012;5.048;2023-06-26T11:42:57;0.73;;;0.70;;
16660;SDS011;8444;52.012;5.048;2023-06-26T11:45:22;1.00;;;0.47;;
16660;SDS011;8444;52.012;5.048;2023-06-26T11:47:48;2.38;;;0.57;;
16660;SDS011;8444;52.012;5.048;2023-06-26T11:50:17;1.77;;;1.05;;
16660;SDS011;8444;52.012;5.048;2023-06-26T11:52:43;3.08;;;0.98;;
16660;SDS011;8444;52.012;5.048;2023-06-26T11:55:08;3.03;;;0.60;;
16660;SDS011;8444;52.012;5.048;2023-06-26T11:57:35;1.25;;;0.45;;
16660;SDS011;8444;52.012;5.048;2023-06-26T12:00:10;1.23;;;0.60;;
16660;SDS011;8444;52.012;5.048;2023-06-26T12:02:35;1.58;;;0.55;;
16660;SDS011;8444;52.012;5.048;2023-06-26T12:05:00;2.40;;;1.13;;
16660;SDS011;8444;52.012;5.048;2023-06-26T12:07:25;1.60;;;0.80;;
16660;SDS011;8444;52.012;5.048;2023-06-26T12:09:51;1.37;;;0.60;;
16660;SDS011;8444;52.012;5.048;2023-06-26T12:12:16;4.47;;;0.60;;
16660;SDS011;8444;52.012;5.048;2023-06-26T12:14:43;2.15;;;0.82;;
16660;SDS011;8444;52.012;5.048;2023-06-26T12:17:11;2.05;;;0.50;;
16660;SDS011;8444;52.012;5.048;2023-06-26T12:19:37;4.28;;;0.60;;
16660;SDS011;8444;52.012;5.048;2023-06-26T12:22:07;1.63;;;0.98;;
16660;SDS011;8444;52.012;5.048;2023-06-26T12:24:33;2.67;;;0.98;;
16660;SDS011;8444;52.012;5.048;2023-06-26T12:27:00;1.00;;;0.50;;
16660;SDS011;8444;52.012;5.048;2023-06-26T12:29:29;1.40;;;0.40;;
16660;SDS011;8444;52.012;5.048;2023-06-26T12:31:56;1.00;;;0.47;;
16660;SDS011;8444;52.012;5.048;2023-06-26T12:34:31;1.27;;;0.60;;
16660;SDS011;8444;52.012;5.048;2023-06-26T12:37:01;1.70;;;0.60;;
16660;SDS011;8444;52.012;5.048;2023-06-26T12:39:27;1.00;;;0.50;;
16660;SDS011;8444;52.012;5.048;2023-06-26T12:44:19;2.80;;;0.80;;
16660;SDS011;8444;52.012;5.048;2023-06-26T12:46:45;4.90;;;0.68;;
16660;SDS011;8444;52.012;5.048;2023-06-26T12:49:12;2.75;;;1.15;;
16660;SDS011;8444;52.012;5.048;2023-06-26T12:51:37;1.77;;;0.73;;
16660;SDS011;8444;52.012;5.048;2023-06-26T12:54:02;2.30;;;0.65;;
16660;SDS011;8444;52.012;5.048;2023-06-26T12:56:27;2.42;;;0.82;;
16660;SDS011;8444;52.012;5.048;2023-06-26T12:58:53;1.55;;;0.75;;
16660;SDS011;8444;52.012;5.048;2023-06-26T13:01:18;4.43;;;0.57;;
16660;SDS011;8444;52.012;5.048;2023-06-26T13:03:45;0.82;;;0.60;;
16660;SDS011;8444;52.012;5.048;2023-06-26T13:06:10;2.83;;;0.60;;
16660;SDS011;8444;52.012;5.048;2023-06-26T13:08:35;3.03;;;0.70;;
16660;SDS011;8444;52.012;5.048;2023-06-26T13:11:01;0.90;;;0.68;;
16660;SDS011;8444;52.012;5.048;2023-06-26T13:13:26;3.03;;;0.90;;
16660;SDS011;8444;52.012;5.048;2023-06-26T13:15:52;0.38;;;0.30;;
16660;SDS011;8444;52.012;5.048;2023-06-26T13:18:17;3.20;;;0.60;;
16660;SDS011;8444;52.012;5.048;2023-06-26T13:20:42;0.80;;;0.50;;
16660;SDS011;8444;52.012;5.048;2023-06-26T13:23:07;3.42;;;0.82;;
16660;SDS011;8444;52.012;5.048;2023-06-26T13:25:33;0.73;;;0.60;;
16660;SDS011;8444;52.012;5.048;2023-06-26T13:27:58;1.37;;;0.80;;
16660;SDS011;8444;52.012;5.048;2023-06-26T13:30:23;1.20;;;0.60;;
16660;SDS011;8444;52.012;5.048;2023-06-26T13:32:49;2.08;;;0.80;;
16660;SDS011;8444;52.012;5.048;2023-06-26T13:35:14;2.00;;;0.50;;
16660;SDS011;8444;52.012;5.048;2023-06-26T13:37:40;1.63;;;0.85;;
16660;SDS011;8444;52.012;5.048;2023-06-26T13:40:05;2.10;;;0.73;;
16660;SDS011;8444;52.012;5.048;2023-06-26T13:42:32;1.67;;;0.65;;
16660;SDS011;8444;52.012;5.048;2023-06-26T13:44:57;2.35;;;0.60;;
16660;SDS011;8444;52.012;5.048;2023-06-26T13:47:22;1.35;;;0.65;;
16660;SDS011;8444;52.012;5.048;2023-06-26T13:49:48;2.30;;;0.70;;
16660;SDS011;8444;52.012;5.048;2023-06-26T13:52:13;0.90;;;0.50;;
16660;SDS011;8444;52.012;5.048;2023-06-26T13:54:38;2.08;;;0.73;;
16660;SDS011;8444;52.012;5.048;2023-06-26T13:57:05;1.67;;;1.02;;
16660;SDS011;8444;52.012;5.048;2023-06-26T13:59:31;1.90;;;0.70;;
16660;SDS011;8444;52.012;5.048;2023-06-26T14:01:56;0.93;;;0.68;;
16660;SDS011;8444;52.012;5.048;2023-06-26T14:04:21;1.25;;;0.70;;
16660;SDS011;8444;52.012;5.048;2023-06-26T14:06:47;5.70;;;0.90;;
16660;SDS011;8444;52.012;5.048;2023-06-26T14:09:12;1.83;;;1.15;;
16660;SDS011;8444;52.012;5.048;2023-06-26T14:11:37;1.90;;;0.82;;
16660;SDS011;8444;52.012;5.048;2023-06-26T14:14:02;1.05;;;0.57;;
16660;SDS011;8444;52.012;5.048;2023-06-26T14:16:28;3.88;;;1.48;;
16660;SDS011;8444;52.012;5.048;2023-06-26T14:18:53;2.15;;;1.15;;
16660;SDS011;8444;52.012;5.048;2023-06-26T14:21:19;3.88;;;1.05;;
16660;SDS011;8444;52.012;5.048;2023-06-26T14:23:44;2.15;;;0.80;;
16660;SDS011;8444;52.012;5.048;2023-06-26T14:26:10;1.85;;;0.65;;
16660;SDS011;8444;52.012;5.048;2023-06-26T14:28:36;3.28;;;0.73;;
16660;SDS011;8444;52.012;5.048;2023-06-26T14:31:01;1.35;;;0.73;;
16660;SDS011;8444;52.012;5.048;2023-06-26T14:33:26;2.17;;;1.27;;
16660;SDS011;8444;52.012;5.048;2023-06-26T14:35:51;1.75;;;0.65;;
16660;SDS011;8444;52.012;5.048;2023-06-26T14:38:17;0.97;;;0.67;;
16660;SDS011;8444;52.012;5.048;2023-06-26T14:40:42;2.53;;;0.70;;
16660;SDS011;8444;52.012;5.048;2023-06-26T14:43:07;4.13;;;1.20;;
16660;SDS011;8444;52.012;5.048;2023-06-26T14:45:32;1.60;;;0.83;;
16660;SDS011;8444;52.012;5.048;2023-06-26T14:47:58;1.80;;;0.60;;
16660;SDS011;8444;52.012;5.048;2023-06-26T14:50:23;1.45;;;0.50;;
16660;SDS011;8444;52.012;5.048;2023-06-26T14:52:48;3.58;;;0.70;;
16660;SDS011;8444;52.012;5.048;2023-06-26T14:55:14;0.90;;;0.60;;
16660;SDS011;8444;52.012;5.048;2023-06-26T14:57:39;2.72;;;0.70;;
16660;SDS011;8444;52.012;5.048;2023-06-26T15:00:04;2.58;;;0.70;;
16660;SDS011;8444;52.012;5.048;2023-06-26T15:02:30;2.10;;;0.60;;
16660;SDS011;8444;52.012;5.048;2023-06-26T15:04:56;3.45;;;0.73;;
16660;SDS011;8444;52.012;5.048;2023-06-26T15:07:21;1.65;;;0.95;;
16660;SDS011;8444;52.012;5.048;2023-06-26T15:09:46;6.22;;;2.22;;